Time;durP1;ratioP1;P1;durP2;ratioP2;P2;SDS_P1;SDS_P2;PMS_P1;PMS_P2;Temp;Humidity;BMP_temperature;BMP_pressure;BME280_temperature;BME280_humidity;BME280_pressure;Samples;Min_cycle;Max_cycle;Signal;HPM_P1;HPM_P2
2022/04/26 03:36:58;;;;;;;4.32;1.98;;;;;;;;;;5128533;28;20561;-47
2022/04/26 03:39:23;;;;;;;1.95;1.25;;;;;;;;;;5128631;28;20031;-40
2022/04/26 03:41:49;;;;;;;6.18;2.45;;;;;;;;;;5127455;28;20047;-43
2022/04/26 03:44:14;;;;;;;10.18;2.40;;;;;;;;;;5128150;28;20516;-45
2022/04/26 03:46:40;;;;;;;3.60;2.00;;;;;;;;;;5128326;28;20062;-44
2022/04/26 03:49:05;;;;;;;6.88;1.42;;;;;;;;;;5128854;28;20039;-41
2022/04/26 03:51:31;;;;;;;4.88;2.85;;;;;;;;;;5128331;28;20062;-41
2022/04/26 03:53:57;;;;;;;7.95;2.95;;;;;;;;;;5109026;28;20043;-43
2022/04/26 03:56:22;;;;;;;3.03;1.88;;;;;;;;;;5128690;28;20043;-42
2022/04/26 03:58:48;;;;;;;5.40;3.47;;;;;;;;;;5125691;28;20042;-41
2022/04/26 04:01:13;;;;;;;7.57;2.42;;;;;;;;;;5128309;28;20375;-43
2022/04/26 04:03:38;;;;;;;8.63;2.72;;;;;;;;;;5129027;28;20159;-41
2022/04/26 04:06:04;;;;;;;2.38;1.52;;;;;;;;;;5126612;28;20069;-45
2022/04/26 04:08:29;;;;;;;3.78;1.88;;;;;;;;;;5128128;28;20047;-43
2022/04/26 04:10:54;;;;;;;2.60;1.42;;;;;;;;;;5128636;28;20121;-40
2022/04/26 04:13:20;;;;;;;4.50;2.38;;;;;;;;;;5128442;28;20471;-44
2022/04/26 04:15:46;;;;;;;6.13;2.88;;;;;;;;;;5127976;28;20034;-43
2022/04/26 04:20:56;;;;;;;2.00;1.65;;;;;;;;;;5128879;28;20042;-41
2022/04/26 04:23:21;;;;;;;12.13;3.45;;;;;;;;;;5127991;28;20042;-47
2022/04/26 04:25:47;;;;;;;3.63;1.67;;;;;;;;;;5127737;28;20100;-42
2022/04/26 04:28:12;;;;;;;5.57;1.90;;;;;;;;;;5128060;28;20067;-42
2022/04/26 04:30:37;;;;;;;2.85;2.40;;;;;;;;;;5128394;28;20472;-49
2022/04/26 04:33:03;;;;;;;2.70;1.70;;;;;;;;;;5127129;28;20043;-41
2022/04/26 04:35:28;;;;;;;3.15;1.60;;;;;;;;;;5123381;28;20039;-44
2022/04/26 04:37:53;;;;;;;2.70;1.85;;;;;;;;;;5127983;28;20039;-41
2022/04/26 04:40:18;;;;;;;3.08;2.15;;;;;;;;;;5127302;27;20134;-41
2022/04/26 04:42:44;;;;;;;6.43;3.33;;;;;;;;;;5127683;28;20047;-41
2022/04/26 04:45:10;;;;;;;13.73;5.03;;;;;;;;;;5128215;28;21393;-42
2022/04/26 04:47:35;;;;;;;4.63;2.72;;;;;;;;;;5127579;28;20558;-43
2022/04/26 04:50:00;;;;;;;8.95;3.38;;;;;;;;;;5128131;28;20043;-43
2022/04/26 04:52:26;;;;;;;3.40;2.55;;;;;;;;;;5128384;28;20058;-42
2022/04/26 04:54:51;;;;;;;9.93;3.40;;;;;;;;;;5128276;28;20490;-41
2022/04/26 04:57:16;;;;;;;8.75;3.65;;;;;;;;;;5127617;28;20043;-42
2022/04/26 04:59:42;;;;;;;13.82;5.13;;;;;;;;;;5128011;28;20538;-44
2022/04/26 05:02:07;;;;;;;4.88;3.72;;;;;;;;;;5127537;28;20081;-45
2022/04/26 05:04:32;;;;;;;3.47;2.47;;;;;;;;;;5127864;28;20398;-44
2022/04/26 05:06:58;;;;;;;4.60;2.65;;;;;;;;;;5127361;28;20137;-43
2022/04/26 05:09:23;;;;;;;4.82;2.75;;;;;;;;;;5128142;28;20067;-44
2022/04/26 05:11:48;;;;;;;3.38;2.50;;;;;;;;;;5127718;28;20053;-45
2022/04/26 05:14:14;;;;;;;30.27;4.68;;;;;;;;;;5127568;28;20095;-44
2022/04/26 05:16:39;;;;;;;4.88;2.25;;;;;;;;;;5127089;28;20043;-46
2022/04/26 05:19:04;;;;;;;5.40;1.75;;;;;;;;;;5127121;28;20087;-43
2022/04/26 05:21:30;;;;;;;3.50;2.67;;;;;;;;;;5127350;28;20039;-46
2022/04/26 05:26:39;;;;;;;15.02;2.65;;;;;;;;;;5126752;28;20057;-43
2022/04/26 05:29:05;;;;;;;4.72;2.72;;;;;;;;;;5126988;28;20031;-47
2022/04/26 05:31:31;;;;;;;3.45;2.40;;;;;;;;;;5126777;28;20039;-46
2022/04/26 05:33:56;;;;;;;5.20;2.97;;;;;;;;;;5127096;28;20137;-46
2022/04/26 05:36:22;;;;;;;4.22;2.38;;;;;;;;;;5126983;28;20126;-48
2022/04/26 05:38:47;;;;;;;7.32;3.25;;;;;;;;;;5126427;28;20451;-46
2022/04/26 05:41:13;;;;;;;5.32;3.10;;;;;;;;;;5126836;28;20568;-45
2022/04/26 05:43:39;;;;;;;8.05;2.03;;;;;;;;;;5127391;28;20047;-46
2022/04/26 05:46:04;;;;;;;16.67;3.38;;;;;;;;;;5126604;28;20073;-45
2022/04/26 05:48:29;;;;;;;6.47;2.80;;;;;;;;;;5126800;28;20509;-45
2022/04/26 05:50:55;;;;;;;5.03;2.97;;;;;;;;;;5124787;27;20429;-45
2022/04/26 05:53:21;;;;;;;3.78;1.83;;;;;;;;;;5107755;28;20079;-45
2022/04/26 05:55:46;;;;;;;15.57;3.65;;;;;;;;;;5126709;28;20151;-46
2022/04/26 05:58:11;;;;;;;4.72;2.63;;;;;;;;;;5127000;28;20051;-48
2022/04/26 06:00:37;;;;;;;10.70;2.58;;;;;;;;;;5106874;28;20333;-46
2022/04/26 06:03:02;;;;;;;14.30;3.03;;;;;;;;;;5126929;28;20050;-46
2022/04/26 06:05:28;;;;;;;10.35;2.80;;;;;;;;;;5126850;28;20031;-46
2022/04/26 06:07:53;;;;;;;10.35;3.08;;;;;;;;;;5125643;28;20039;-45
2022/04/26 06:10:18;;;;;;;9.85;3.40;;;;;;;;;;5126028;28;20132;-44
2022/04/26 06:12:44;;;;;;;14.63;4.55;;;;;;;;;;5125427;28;20537;-44
2022/04/26 06:15:10;;;;;;;23.67;4.63;;;;;;;;;;5125463;28;20517;-46
2022/04/26 06:17:36;;;;;;;11.48;5.28;;;;;;;;;;5126754;28;20081;-43
2022/04/26 06:20:01;;;;;;;3.42;2.53;;;;;;;;;;5126608;28;20039;-43
2022/04/26 06:22:26;;;;;;;5.97;3.92;;;;;;;;;;5124843;28;21188;-43
2022/04/26 06:24:52;;;;;;;11.48;2.65;;;;;;;;;;5125326;28;20462;-48
2022/04/26 06:27:18;;;;;;;5.53;3.22;;;;;;;;;;5123819;28;20047;-44
2022/04/26 06:29:43;;;;;;;7.20;3.50;;;;;;;;;;5125359;28;20143;-44
2022/04/26 06:32:08;;;;;;;13.25;5.00;;;;;;;;;;5125498;28;20055;-44
2022/04/26 06:34:34;;;;;;;10.52;7.53;;;;;;;;;;5125754;28;20121;-43
2022/04/26 06:36:59;;;;;;;12.80;7.07;;;;;;;;;;5125028;28;20356;-46
2022/04/26 06:39:24;;;;;;;17.50;6.45;;;;;;;;;;5124734;28;20055;-46
2022/04/26 06:41:50;;;;;;;5.90;5.00;;;;;;;;;;5125302;28;20522;-46
2022/04/26 06:44:15;;;;;;;7.95;4.68;;;;;;;;;;5125128;28;20043;-48
2022/04/26 06:46:40;;;;;;;10.20;4.68;;;;;;;;;;5125388;28;20043;-47
2022/04/26 06:49:06;;;;;;;12.40;4.72;;;;;;;;;;5125490;28;20075;-42
2022/04/26 06:51:38;;;;;;;9.00;4.97;;;;;;;;;;5125654;28;20061;-46
2022/04/26 06:54:03;;;;;;;5.43;4.47;;;;;;;;;;5126030;28;20054;-49
2022/04/26 06:56:29;;;;;;;14.18;5.75;;;;;;;;;;5125525;28;20047;-45
2022/04/26 06:58:55;;;;;;;22.55;8.85;;;;;;;;;;5125430;28;20358;-43
2022/04/26 07:01:20;;;;;;;28.05;11.45;;;;;;;;;;5125753;28;20056;-44
2022/04/26 07:03:45;;;;;;;22.35;8.75;;;;;;;;;;5125868;27;20046;-44
2022/04/26 07:06:11;;;;;;;9.68;4.32;;;;;;;;;;5128114;28;20109;-42
2022/04/26 07:08:36;;;;;;;3.88;2.58;;;;;;;;;;5127851;28;20077;-42
2022/04/26 07:11:01;;;;;;;3.28;2.15;;;;;;;;;;5129219;28;20156;-44
2022/04/26 07:13:27;;;;;;;18.83;2.45;;;;;;;;;;5127955;28;20072;-45
2022/04/26 07:15:52;;;;;;;7.40;2.05;;;;;;;;;;5126445;28;20043;-46
2022/04/26 07:18:17;;;;;;;2.38;1.63;;;;;;;;;;5126200;28;20038;-46
2022/04/26 07:20:44;;;;;;;3.95;1.63;;;;;;;;;;5126955;28;20139;-46
2022/04/26 07:23:10;;;;;;;3.85;1.35;;;;;;;;;;5125829;28;20043;-42
2022/04/26 07:25:35;;;;;;;1.65;1.27;;;;;;;;;;5126318;28;20296;-44
2022/04/26 07:28:00;;;;;;;1.67;1.38;;;;;;;;;;5126989;28;20043;-46
2022/04/26 07:30:34;;;;;;;3.08;1.60;;;;;;;;;;5128251;28;20062;-45
2022/04/26 07:35:53;;;;;;;3.08;1.58;;;;;;;;;;5129010;28;20070;-45
2022/04/26 07:38:19;;;;;;;4.63;3.25;;;;;;;;;;5127974;28;20050;-46
2022/04/26 07:40:44;;;;;;;6.43;3.08;;;;;;;;;;5129062;28;20406;-46
2022/04/26 07:43:10;;;;;;;4.90;2.67;;;;;;;;;;5127762;28;20092;-43
2022/04/26 07:45:36;;;;;;;9.70;5.45;;;;;;;;;;5129179;28;20378;-43
2022/04/26 07:48:03;;;;;;;9.20;4.03;;;;;;;;;;5129407;28;20043;-48
2022/04/26 07:50:29;;;;;;;4.05;2.80;;;;;;;;;;5128454;28;20050;-47
2022/04/26 07:52:54;;;;;;;10.57;2.40;;;;;;;;;;5127587;28;20051;-47
2022/04/26 07:55:19;;;;;;;18.27;4.38;;;;;;;;;;5128806;28;20039;-48
2022/04/26 07:57:45;;;;;;;6.10;2.25;;;;;;;;;;5126504;28;20514;-46
2022/04/26 08:00:11;;;;;;;5.65;2.25;;;;;;;;;;5128577;28;20053;-49
2022/04/26 08:02:36;;;;;;;3.80;2.60;;;;;;;;;;5128425;28;20039;-49
2022/04/26 08:05:02;;;;;;;1.90;1.50;;;;;;;;;;5129180;28;20051;-43
2022/04/26 08:07:29;;;;;;;6.13;3.10;;;;;;;;;;5128502;28;20569;-44
2022/04/26 08:09:54;;;;;;;3.78;2.42;;;;;;;;;;5127835;28;20039;-56
2022/04/26 08:12:19;;;;;;;7.72;3.13;;;;;;;;;;5126755;28;20289;-57
2022/04/26 08:14:45;;;;;;;6.28;3.53;;;;;;;;;;5126968;27;20087;-54
2022/04/26 08:17:11;;;;;;;7.30;4.95;;;;;;;;;;5127857;28;20042;-54
2022/04/26 08:19:37;;;;;;;11.82;5.22;;;;;;;;;;5127665;28;20067;-56
2022/04/26 08:22:02;;;;;;;5.32;4.38;;;;;;;;;;5127395;28;20062;-53
2022/04/26 08:27:25;;;;;;;22.73;11.93;;;;;;;;;;5123832;28;20138;-52
2022/04/26 08:29:53;;;;;;;19.88;13.23;;;;;;;;;;5125411;28;20059;-52
2022/04/26 08:32:19;;;;;;;25.27;9.65;;;;;;;;;;5127152;28;20039;-53
2022/04/26 08:34:44;;;;;;;29.58;8.95;;;;;;;;;;5125246;28;20050;-56
2022/04/26 08:37:09;;;;;;;10.82;6.30;;;;;;;;;;5126925;28;20494;-58
2022/04/26 08:39:35;;;;;;;9.98;4.43;;;;;;;;;;5126815;28;20035;-54
2022/04/26 08:42:01;;;;;;;8.10;5.45;;;;;;;;;;5125671;28;20070;-56
2022/04/26 08:44:27;;;;;;;12.60;4.97;;;;;;;;;;5126170;28;20565;-58
2022/04/26 08:52:22;;;;;;;6.80;3.60;;;;;;;;;;5125581;28;20081;-58
2022/04/26 08:54:49;;;;;;;3.65;2.53;;;;;;;;;;5125005;28;20668;-58
2022/04/26 08:57:14;;;;;;;7.75;3.22;;;;;;;;;;5126635;28;20051;-56
2022/04/26 08:59:46;;;;;;;4.55;3.25;;;;;;;;;;5126268;28;20042;-56
2022/04/26 09:02:15;;;;;;;5.88;3.63;;;;;;;;;;5126242;28;20043;-58
2022/04/26 09:04:41;;;;;;;38.05;6.00;;;;;;;;;;5125245;28;20553;-58
2022/04/26 09:07:09;;;;;;;3.85;2.63;;;;;;;;;;5106174;28;20122;-55
2022/04/26 09:09:37;;;;;;;2.58;1.77;;;;;;;;;;5127373;28;20126;-48
2022/04/26 09:12:09;;;;;;;22.38;3.95;;;;;;;;;;5126493;28;20043;-52
2022/04/26 09:14:36;;;;;;;3.10;1.48;;;;;;;;;;5125122;28;20231;-51
2022/04/26 09:17:08;;;;;;;7.15;2.03;;;;;;;;;;5126643;28;20043;-52
2022/04/26 09:19:46;;;;;;;3.53;2.10;;;;;;;;;;5126345;28;20039;-48
2022/04/26 09:22:22;;;;;;;16.98;3.22;;;;;;;;;;5125402;28;20047;-48
2022/04/26 09:24:53;;;;;;;6.07;4.03;;;;;;;;;;5125819;28;20469;-50
2022/04/26 09:27:19;;;;;;;7.75;1.45;;;;;;;;;;5124638;27;20104;-48
2022/04/26 09:29:47;;;;;;;3.45;1.83;;;;;;;;;;5125123;28;20080;-50
2022/04/26 09:32:12;;;;;;;2.78;1.50;;;;;;;;;;5124844;28;20752;-48
2022/04/26 09:34:38;;;;;;;4.15;1.67;;;;;;;;;;5125386;28;20080;-45
2022/04/26 09:37:04;;;;;;;3.55;1.70;;;;;;;;;;5123979;28;20062;-48
2022/04/26 09:39:30;;;;;;;2.92;0.95;;;;;;;;;;5124451;28;20458;-46
2022/04/26 09:41:55;;;;;;;13.40;4.20;;;;;;;;;;5124982;28;20550;-46
2022/04/26 09:44:40;;;;;;;7.93;3.85;;;;;;;;;;5123088;28;20637;-46
2022/04/26 09:47:06;;;;;;;10.68;4.13;;;;;;;;;;5123004;28;20042;-49
2022/04/26 09:49:37;;;;;;;5.10;2.58;;;;;;;;;;5123929;28;20065;-47
2022/04/26 09:52:03;;;;;;;6.40;3.63;;;;;;;;;;5123486;28;20046;-49
2022/04/26 09:54:29;;;;;;;6.70;3.20;;;;;;;;;;5125330;28;20050;-50
2022/04/26 09:56:55;;;;;;;8.57;2.83;;;;;;;;;;5123929;28;20039;-51
2022/04/26 09:59:24;;;;;;;5.35;3.60;;;;;;;;;;5124536;28;20736;-48
2022/04/26 10:01:50;;;;;;;8.88;3.58;;;;;;;;;;5124708;28;20046;-51
2022/04/26 10:04:17;;;;;;;3.08;1.52;;;;;;;;;;5125005;28;20142;-48
2022/04/26 10:06:43;;;;;;;3.05;2.15;;;;;;;;;;5124577;28;20133;-48
2022/04/26 10:09:09;;;;;;;3.97;2.13;;;;;;;;;;5125305;28;20116;-50
2022/04/26 10:11:35;;;;;;;5.78;3.55;;;;;;;;;;5124685;28;20055;-49
2022/04/26 10:14:02;;;;;;;5.75;2.50;;;;;;;;;;5125206;28;20035;-47
2022/04/26 10:16:28;;;;;;;10.30;1.58;;;;;;;;;;5125364;28;20036;-45
2022/04/26 10:19:04;;;;;;;16.35;2.17;;;;;;;;;;5124029;28;20251;-48
2022/04/26 10:21:29;;;;;;;5.60;2.25;;;;;;;;;;5123745;28;20521;-48
2022/04/26 10:23:55;;;;;;;4.22;2.13;;;;;;;;;;5122238;28;20043;-49
2022/04/26 10:28:50;;;;;;;3.65;2.28;;;;;;;;;;5125082;28;20131;-49
2022/04/26 10:31:17;;;;;;;6.88;2.95;;;;;;;;;;5124234;28;20031;-52
2022/04/26 10:33:42;;;;;;;6.00;2.33;;;;;;;;;;5123775;28;20069;-49
2022/04/26 10:36:20;;;;;;;1.25;0.88;;;;;;;;;;5123721;28;20498;-52
2022/04/26 10:39:04;;;;;;;3.88;1.88;;;;;;;;;;5123707;27;20047;-52
2022/04/26 10:41:34;;;;;;;2.92;1.77;;;;;;;;;;5123614;28;20035;-51
2022/04/26 10:44:17;;;;;;;3.75;1.23;;;;;;;;;;5124131;28;20460;-48
2022/04/26 10:46:43;;;;;;;1.83;0.70;;;;;;;;;;5122412;28;20703;-53
2022/04/26 10:49:40;;;;;;;2.60;0.70;;;;;;;;;;5121167;28;20130;-52
2022/04/26 10:52:10;;;;;;;2.50;0.85;;;;;;;;;;5121193;28;20051;-47
2022/04/26 10:55:07;;;;;;;1.60;0.90;;;;;;;;;;5123398;28;20062;-48
2022/04/26 10:57:33;;;;;;;4.53;1.50;;;;;;;;;;5123412;28;20474;-51
2022/04/26 11:00:07;;;;;;;3.70;1.83;;;;;;;;;;5123438;28;20066;-46
2022/04/26 11:02:35;;;;;;;3.65;1.02;;;;;;;;;;5122015;28;20074;-52
2022/04/26 11:05:01;;;;;;;1.27;1.13;;;;;;;;;;5123718;28;20203;-46
2022/04/26 11:07:29;;;;;;;2.13;0.77;;;;;;;;;;5118253;28;20220;-51
2022/04/26 11:09:56;;;;;;;1.88;0.85;;;;;;;;;;5123639;28;20043;-50
2022/04/26 11:12:22;;;;;;;1.60;0.52;;;;;;;;;;5118951;28;20455;-51
2022/04/26 11:14:48;;;;;;;4.18;1.45;;;;;;;;;;5123455;28;20043;-50
2022/04/26 11:17:17;;;;;;;2.03;1.35;;;;;;;;;;5122106;28;20163;-49
2022/04/26 11:19:49;;;;;;;3.33;1.25;;;;;;;;;;5122210;28;20050;-52
2022/04/26 11:22:15;;;;;;;1.00;0.47;;;;;;;;;;5123750;28;20055;-51
2022/04/26 11:30:15;;;;;;;2.13;0.80;;;;;;;;;;5122892;28;20562;-51
2022/04/26 11:32:44;;;;;;;1.10;0.57;;;;;;;;;;5124987;28;20051;-45
2022/04/26 11:35:10;;;;;;;7.80;1.23;;;;;;;;;;5124116;28;20092;-46
2022/04/26 11:37:55;;;;;;;2.15;0.40;;;;;;;;;;5124621;28;20050;-47
2022/04/26 11:40:27;;;;;;;0.95;0.68;;;;;;;;;;5124127;28;20077;-50
2022/04/26 11:42:54;;;;;;;2.47;1.38;;;;;;;;;;5106102;28;20062;-52
2022/04/26 11:45:20;;;;;;;2.22;1.08;;;;;;;;;;5123371;28;20035;-49
2022/04/26 11:47:48;;;;;;;1.10;0.73;;;;;;;;;;5123400;28;20095;-50
2022/04/26 11:50:15;;;;;;;2.80;1.02;;;;;;;;;;5126464;27;20088;-46
2022/04/26 11:52:43;;;;;;;1.00;0.75;;;;;;;;;;5127665;28;20517;-48
2022/04/26 11:55:17;;;;;;;2.00;0.93;;;;;;;;;;5125223;28;20047;-52
2022/04/26 11:57:42;;;;;;;2.08;0.65;;;;;;;;;;5124704;28;20101;-48
2022/04/26 12:00:08;;;;;;;4.47;1.50;;;;;;;;;;5127159;28;20047;-46
2022/04/26 12:02:34;;;;;;;2.88;1.42;;;;;;;;;;5127216;28;20047;-48
2022/04/26 12:05:00;;;;;;;2.20;0.57;;;;;;;;;;5127658;28;20039;-48
2022/04/26 12:07:26;;;;;;;1.45;0.77;;;;;;;;;;5128225;28;20043;-53
2022/04/26 12:09:52;;;;;;;2.05;0.95;;;;;;;;;;5127687;28;20031;-51
2022/04/26 12:12:18;;;;;;;0.60;0.47;;;;;;;;;;5127587;28;20047;-49
2022/04/26 12:14:47;;;;;;;3.58;0.75;;;;;;;;;;5126225;28;20046;-48
2022/04/26 12:17:18;;;;;;;2.72;1.15;;;;;;;;;;5127176;28;20339;-49
2022/04/26 12:19:50;;;;;;;0.40;0.28;;;;;;;;;;5127401;28;20039;-51
2022/04/26 12:22:15;;;;;;;4.43;1.15;;;;;;;;;;5127569;28;20411;-48
2022/04/26 12:24:46;;;;;;;1.88;0.95;;;;;;;;;;5127659;28;20089;-49
2022/04/26 12:27:12;;;;;;;8.77;2.50;;;;;;;;;;5127882;28;20051;-55
2022/04/26 12:29:38;;;;;;;2.20;1.23;;;;;;;;;;5127080;28;20059;-54
2022/04/26 12:32:04;;;;;;;1.92;1.23;;;;;;;;;;5125844;28;20051;-53
2022/04/26 12:34:30;;;;;;;5.22;0.95;;;;;;;;;;5125675;28;20055;-54
2022/04/26 12:37:00;;;;;;;1.52;1.10;;;;;;;;;;5126754;28;20134;-50
2022/04/26 12:39:41;;;;;;;4.07;2.20;;;;;;;;;;5126594;28;20043;-50
2022/04/26 12:42:07;;;;;;;5.35;2.78;;;;;;;;;;5126917;28;20055;-47
2022/04/26 12:44:33;;;;;;;6.35;5.75;;;;;;;;;;5122440;28;20054;-52
2022/04/26 12:50:36;;;;;;;3.15;2.83;;;;;;;;;;5126232;28;20260;-53
2022/04/26 12:53:02;;;;;;;7.35;6.03;;;;;;;;;;5066488;28;20055;-52
2022/04/26 12:55:28;;;;;;;7.15;6.55;;;;;;;;;;5119712;28;20038;-53
2022/04/26 12:57:54;;;;;;;7.75;7.13;;;;;;;;;;5124508;28;20110;-56
2022/04/26 13:00:20;;;;;;;8.82;8.10;;;;;;;;;;5123892;27;20138;-53
2022/04/26 13:02:47;;;;;;;8.95;8.07;;;;;;;;;;5124283;28;20048;-53
2022/04/26 13:05:12;;;;;;;12.73;7.18;;;;;;;;;;5123560;28;20047;-50
2022/04/26 13:07:37;;;;;;;6.93;6.30;;;;;;;;;;5125849;28;20039;-51
2022/04/26 13:10:03;;;;;;;7.05;6.35;;;;;;;;;;5125929;28;20074;-53
2022/04/26 13:12:29;;;;;;;8.65;7.82;;;;;;;;;;5126517;28;20486;-53
2022/04/26 13:14:54;;;;;;;7.82;7.13;;;;;;;;;;5127043;28;20038;-55
2022/04/26 13:17:21;;;;;;;7.53;6.85;;;;;;;;;;5126499;28;20050;-57
2022/04/26 13:19:47;;;;;;;5.72;5.18;;;;;;;;;;5123207;28;20063;-58
2022/04/26 13:22:12;;;;;;;4.40;3.80;;;;;;;;;;5126667;28;20550;-53
2022/04/26 13:24:37;;;;;;;8.38;6.28;;;;;;;;;;5125410;28;20058;-54
2022/04/26 13:27:03;;;;;;;8.65;5.45;;;;;;;;;;5126130;28;20959;-48
2022/04/26 13:29:29;;;;;;;12.82;2.70;;;;;;;;;;5126465;28;20039;-56
2022/04/26 13:31:54;;;;;;;3.03;2.47;;;;;;;;;;5126786;28;20161;-52
2022/04/26 13:34:20;;;;;;;5.30;4.03;;;;;;;;;;5126882;28;20051;-55
2022/04/26 13:36:46;;;;;;;6.95;3.72;;;;;;;;;;5125726;28;20505;-51
2022/04/26 13:39:11;;;;;;;11.10;2.58;;;;;;;;;;5125519;28;20202;-53
2022/04/26 13:41:37;;;;;;;12.95;3.08;;;;;;;;;;5126157;28;20099;-54
2022/04/26 13:44:02;;;;;;;3.83;3.17;;;;;;;;;;5125355;28;20538;-54
2022/04/26 13:46:27;;;;;;;3.95;3.60;;;;;;;;;;5124794;28;20414;-55
2022/04/26 13:48:53;;;;;;;6.72;3.08;;;;;;;;;;5124420;28;20558;-52
2022/04/26 13:51:19;;;;;;;3.63;3.28;;;;;;;;;;5123921;28;20126;-55
2022/04/26 13:53:45;;;;;;;17.45;5.68;;;;;;;;;;5104020;28;20043;-54
2022/04/26 13:56:10;;;;;;;6.75;5.28;;;;;;;;;;5126178;28;20943;-52
2022/04/26 13:58:35;;;;;;;4.53;3.13;;;;;;;;;;5126704;28;20078;-52
2022/04/26 14:01:01;;;;;;;6.95;4.10;;;;;;;;;;5126047;28;20130;-53
2022/04/26 14:03:27;;;;;;;4.07;2.92;;;;;;;;;;5124935;28;20079;-56
2022/04/26 14:05:54;;;;;;;7.75;4.95;;;;;;;;;;5124196;28;20042;-55
2022/04/26 14:08:19;;;;;;;13.77;4.72;;;;;;;;;;5125267;28;20054;-55
2022/04/26 14:10:44;;;;;;;13.43;4.20;;;;;;;;;;5125742;28;20043;-54
2022/04/26 14:13:10;;;;;;;5.25;3.85;;;;;;;;;;5124734;27;20071;-53
2022/04/26 14:24:06;;;;;;;3.00;2.05;;;;;;;;;;5125626;28;20046;-56
2022/04/26 14:26:31;;;;;;;6.60;1.60;;;;;;;;;;5125123;28;20054;-55
2022/04/26 14:28:56;;;;;;;2.75;2.40;;;;;;;;;;5125956;28;20039;-54
2022/04/26 14:31:22;;;;;;;3.67;2.08;;;;;;;;;;5125365;28;20518;-57
2022/04/26 14:33:47;;;;;;;2.80;2.20;;;;;;;;;;5106329;28;20188;-56
2022/04/26 14:36:13;;;;;;;5.43;1.75;;;;;;;;;;5123840;28;20035;-56
2022/04/26 14:38:38;;;;;;;8.38;2.25;;;;;;;;;;5124667;28;20085;-55
2022/04/26 14:41:03;;;;;;;4.15;1.88;;;;;;;;;;5123543;28;20067;-56
2022/04/26 14:43:29;;;;;;;6.95;1.33;;;;;;;;;;5125212;28;20450;-56
2022/04/26 14:45:55;;;;;;;3.42;1.67;;;;;;;;;;5124269;28;20081;-54
2022/04/26 14:48:20;;;;;;;1.77;1.05;;;;;;;;;;5124757;28;20039;-56
2022/04/26 14:50:45;;;;;;;4.82;2.53;;;;;;;;;;5125517;27;20077;-56
2022/04/26 14:53:11;;;;;;;17.95;6.38;;;;;;;;;;5123982;28;20039;-56
2022/04/26 14:55:36;;;;;;;2.58;1.15;;;;;;;;;;5124092;28;20525;-56
2022/04/26 14:58:02;;;;;;;5.78;2.28;;;;;;;;;;5123112;28;20251;-55
2022/04/26 15:00:27;;;;;;;8.20;2.60;;;;;;;;;;5100910;28;20035;-57
2022/04/26 15:02:53;;;;;;;3.95;2.08;;;;;;;;;;5124083;28;20450;-56
2022/04/26 15:05:18;;;;;;;4.13;1.40;;;;;;;;;;5123656;28;20047;-54
2022/04/26 15:10:29;;;;;;;3.30;2.42;;;;;;;;;;5124219;28;20053;-51
2022/04/26 15:18:22;;;;;;;4.13;1.98;;;;;;;;;;5124543;28;20051;-55
2022/04/26 15:20:53;;;;;;;4.00;1.67;;;;;;;;;;5124544;28;20035;-54
2022/04/26 15:23:18;;;;;;;;;;;;;;;;;;5123762;27;20118;-56
2022/04/26 15:26:03;;;;;;;5.33;2.40;;;;;;;;;;5127114;28;20841;-54
2022/04/26 15:28:30;;;;;;;4.50;2.55;;;;;;;;;;5127849;28;20995;-55
2022/04/26 15:30:55;;;;;;;4.78;2.75;;;;;;;;;;5127318;28;20034;-56
2022/04/26 15:33:22;;;;;;;15.52;6.50;;;;;;;;;;5126867;28;20415;-57
2022/04/26 15:35:47;;;;;;;5.05;2.58;;;;;;;;;;5127864;28;20043;-57
2022/04/26 15:38:13;;;;;;;4.30;2.63;;;;;;;;;;5126117;28;20154;-56
2022/04/26 15:40:40;;;;;;;2.83;1.90;;;;;;;;;;5126686;28;20050;-57
2022/04/26 15:43:05;;;;;;;4.13;1.98;;;;;;;;;;5126803;28;20054;-57
2022/04/26 15:45:31;;;;;;;1.60;0.75;;;;;;;;;;5128137;28;20035;-57
2022/04/26 15:47:56;;;;;;;11.35;1.85;;;;;;;;;;5127233;28;20055;-56
2022/04/26 15:50:23;;;;;;;13.05;1.75;;;;;;;;;;5126729;28;20069;-56
2022/04/26 15:52:49;;;;;;;2.10;1.13;;;;;;;;;;5126561;28;20171;-56
2022/04/26 15:55:14;;;;;;;3.40;1.00;;;;;;;;;;5125371;28;20043;-53
2022/04/26 15:57:42;;;;;;;12.65;1.65;;;;;;;;;;5107297;28;21932;-55
2022/04/26 16:00:10;;;;;;;1.67;1.05;;;;;;;;;;5127164;28;20031;-55
2022/04/26 16:02:35;;;;;;;4.18;1.25;;;;;;;;;;5126545;28;20046;-53
2022/04/26 16:05:01;;;;;;;3.17;1.48;;;;;;;;;;5127617;28;20895;-54
2022/04/26 16:07:26;;;;;;;12.68;2.90;;;;;;;;;;5106707;28;20055;-54
2022/04/26 16:20:47;;;;;;;6.28;1.63;;;;;;;;;;5127038;28;20050;-54
2022/04/26 16:23:13;;;;;;;7.03;1.70;;;;;;;;;;5126852;28;20047;-53
2022/04/26 16:25:38;;;;;;;1.95;0.98;;;;;;;;;;5127548;28;20134;-52
2022/04/26 16:28:04;;;;;;;5.63;2.10;;;;;;;;;;5126616;28;20089;-54
2022/04/26 16:30:30;;;;;;;5.07;1.30;;;;;;;;;;5127185;28;20415;-54
2022/04/26 16:32:57;;;;;;;2.30;1.50;;;;;;;;;;5106633;28;20054;-55
2022/04/26 16:35:24;;;;;;;3.33;1.58;;;;;;;;;;5126297;27;20059;-52
2022/04/26 16:37:49;;;;;;;2.45;0.95;;;;;;;;;;5126413;28;20501;-53
2022/04/26 16:40:15;;;;;;;2.05;1.38;;;;;;;;;;5126906;28;20049;-57
2022/04/26 16:42:40;;;;;;;2.65;1.63;;;;;;;;;;5127302;28;20465;-54
2022/04/26 16:45:07;;;;;;;12.38;0.80;;;;;;;;;;5127544;28;20047;-53
2022/04/26 16:47:32;;;;;;;1.08;0.75;;;;;;;;;;5127251;28;20059;-54
2022/04/26 16:49:58;;;;;;;3.70;1.40;;;;;;;;;;5126206;28;20486;-56
2022/04/26 16:52:23;;;;;;;3.92;1.30;;;;;;;;;;5126914;28;20733;-55
2022/04/26 16:54:50;;;;;;;2.88;1.83;;;;;;;;;;5127054;28;20689;-56
2022/04/26 16:57:15;;;;;;;3.55;1.50;;;;;;;;;;5127269;28;20086;-52
2022/04/26 16:59:41;;;;;;;1.58;1.30;;;;;;;;;;5127744;28;20138;-53
2022/04/26 17:02:06;;;;;;;2.42;1.73;;;;;;;;;;5126564;28;20150;-52
2022/04/26 17:04:31;;;;;;;1.73;1.38;;;;;;;;;;5126075;28;20043;-53
2022/04/26 17:06:58;;;;;;;6.05;2.08;;;;;;;;;;5126347;28;20035;-53
2022/04/26 17:09:23;;;;;;;4.28;1.60;;;;;;;;;;5126073;28;20051;-54
2022/04/26 17:11:48;;;;;;;8.65;2.17;;;;;;;;;;5122636;27;20158;-51
2022/04/26 17:14:14;;;;;;;8.40;1.90;;;;;;;;;;5126458;28;20043;-52
2022/04/26 17:16:40;;;;;;;1.35;1.08;;;;;;;;;;5126697;28;20426;-52
2022/04/26 17:19:05;;;;;;;7.18;1.25;;;;;;;;;;5126505;28;20058;-54
2022/04/26 17:21:32;;;;;;;2.95;1.35;;;;;;;;;;5107904;28;20541;-53
2022/04/26 17:23:57;;;;;;;1.63;0.95;;;;;;;;;;5126648;28;20161;-52
2022/04/26 17:26:23;;;;;;;4.55;1.65;;;;;;;;;;5118808;27;20137;-53
2022/04/26 17:28:49;;;;;;;3.97;0.95;;;;;;;;;;5123337;28;20112;-50
2022/04/26 17:31:14;;;;;;;2.45;1.27;;;;;;;;;;5122919;28;20047;-54
2022/04/26 17:33:40;;;;;;;5.47;1.92;;;;;;;;;;5123671;28;20104;-49
2022/04/26 17:36:06;;;;;;;2.53;1.95;;;;;;;;;;5124059;28;20781;-54
2022/04/26 17:38:32;;;;;;;7.00;1.52;;;;;;;;;;5122979;28;20035;-53
2022/04/26 17:40:57;;;;;;;2.13;1.50;;;;;;;;;;5123271;28;20067;-48
2022/04/26 17:43:22;;;;;;;29.60;2.90;;;;;;;;;;5123685;28;20134;-49
2022/04/26 17:45:47;;;;;;;3.30;1.35;;;;;;;;;;5124519;28;20125;-53
2022/04/26 17:48:13;;;;;;;4.63;2.50;;;;;;;;;;5123147;27;20039;-52
2022/04/26 17:50:39;;;;;;;7.43;2.85;;;;;;;;;;5121377;28;20366;-52
2022/04/26 17:58:32;;;;;;;2.67;1.10;;;;;;;;;;5124004;28;20073;-48
2022/04/26 18:00:57;;;;;;;12.65;8.18;;;;;;;;;;5122546;28;20142;-48
2022/04/26 18:03:24;;;;;;;6.70;3.83;;;;;;;;;;5123742;28;20043;-49
2022/04/26 18:05:49;;;;;;;7.13;1.80;;;;;;;;;;5123090;28;20518;-50
2022/04/26 18:08:14;;;;;;;2.67;1.77;;;;;;;;;;5123177;28;20043;-48
2022/04/26 18:10:41;;;;;;;5.95;2.05;;;;;;;;;;5122395;28;20414;-52
2022/04/26 18:13:07;;;;;;;2.88;1.50;;;;;;;;;;5122149;28;20705;-52
2022/04/26 18:15:32;;;;;;;2.10;1.05;;;;;;;;;;5124119;28;20068;-53
2022/04/26 18:17:58;;;;;;;2.88;1.73;;;;;;;;;;5123719;28;20034;-50
2022/04/26 18:20:24;;;;;;;4.25;2.58;;;;;;;;;;5123867;28;20042;-48
2022/04/26 18:22:50;;;;;;;3.92;1.50;;;;;;;;;;5104722;28;20047;-50
2022/04/26 18:26:10;;;;;;;16.02;3.60;;;;;;;;;;5123285;28;20981;-52
2022/04/26 18:28:00;;;;;;;2.30;1.52;;;;;;;;;;5122162;28;20039;-52
2022/04/26 18:30:25;;;;;;;5.80;2.13;;;;;;;;;;5120445;28;20691;-54
2022/04/26 18:32:51;;;;;;;4.70;2.10;;;;;;;;;;5122320;28;20697;-47
2022/04/26 18:35:16;;;;;;;1.10;0.80;;;;;;;;;;5122396;28;20047;-49
2022/04/26 18:37:41;;;;;;;4.00;2.38;;;;;;;;;;5121865;28;20035;-53
2022/04/26 18:40:07;;;;;;;1.70;1.13;;;;;;;;;;5123085;28;20039;-51
2022/04/26 18:42:32;;;;;;;4.82;1.73;;;;;;;;;;5123112;28;20050;-54
2022/04/26 18:44:58;;;;;;;2.72;1.50;;;;;;;;;;5121422;28;20054;-51
2022/04/26 18:47:23;;;;;;;5.63;1.77;;;;;;;;;;5122180;27;20179;-51
2022/04/26 18:49:49;;;;;;;6.45;1.85;;;;;;;;;;5123378;28;20050;-56
2022/04/26 18:52:15;;;;;;;2.80;1.73;;;;;;;;;;5122536;28;20046;-53
2022/04/26 18:54:41;;;;;;;2.00;1.58;;;;;;;;;;5121309;28;20082;-54
2022/04/26 18:57:06;;;;;;;3.33;1.13;;;;;;;;;;5122004;28;20469;-52
2022/04/26 18:59:32;;;;;;;3.95;1.45;;;;;;;;;;5121613;27;20079;-52
2022/04/26 19:01:57;;;;;;;2.42;0.95;;;;;;;;;;5123181;28;20139;-54
2022/04/26 19:04:25;;;;;;;2.63;1.77;;;;;;;;;;5122428;28;20114;-55
2022/04/26 19:06:50;;;;;;;3.63;2.38;;;;;;;;;;5118874;28;20096;-52
2022/04/26 19:09:16;;;;;;;5.28;2.55;;;;;;;;;;5121985;28;20043;-55
2022/04/26 19:14:25;;;;;;;6.45;2.33;;;;;;;;;;5123327;28;20110;-56
2022/04/26 19:16:51;;;;;;;7.68;4.75;;;;;;;;;;5124081;28;20533;-55